This is the latest recevied weather packets stored in our database for station/object K4KMJ. If no packets are shown the sender has not sent any weather packets the latest 1 day(s).
| Time | Temp. | Humidity | Pressure | Rain* | Wind** | Luminosity | Snow |
|---|---|---|---|---|---|---|---|
| 1778090661 | 32.22° C | 48% | 1018.2 hPa | 0 mm | - | 841 W/m² | - |
| 1778089449 | 31.67° C | 49% | 1018.6 hPa | 0 mm | - | 867 W/m² | - |
| 1778089146 | 31.67° C | 49% | 1018.8 hPa | 0 mm | - | 854 W/m² | - |
| 1778088236 | 31.67° C | 50% | 1019 hPa | 0 mm | - | 874 W/m² | - |
| 1778086717 | 31.11° C | 54% | 1019 hPa | 0 mm | - | 765 W/m² | - |
| 1778086415 | 31.11° C | 54% | 1019.1 hPa | 0 mm | - | 886 W/m² | - |
| 1778085500 | 30.56° C | 55% | 1019.3 hPa | 0 mm | - | 899 W/m² | - |
| 1778083982 | 30.56° C | 56% | 1019.5 hPa | 0 mm | - | 839 W/m² | - |
| 1778083371 | 30.56° C | 58% | 1019.5 hPa | 0 mm | - | 726 W/m² | - |
| 1778083070 | 30° C | 58% | 1019.4 hPa | 0 mm | - | 707 W/m² | - |
| 1778081633 | 30° C | 63% | 1019.3 hPa | 0 mm | - | 745 W/m² | - |
| 1778081330 | 29.44° C | 64% | 1019.2 hPa | 0 mm | - | 771 W/m² | - |
| 1778081027 | 29.44° C | 65% | 1019.6 hPa | 0 mm | - | 778 W/m² | - |
| 1778080422 | 28.89° C | 68% | 1019.6 hPa | 0 mm | - | 620 W/m² | - |
| 1778079816 | 28.89° C | 71% | 1019.6 hPa | 0 mm | - | 726 W/m² | - |
| 1778079210 | 28.89° C | 73% | 1019.3 hPa | 0 mm | - | 711 W/m² | - |
| 1778078603 | 27.78° C | 76% | 1019.6 hPa | 0 mm | - | 605 W/m² | - |
| 1778078302 | 27.22° C | 77% | 1019.5 hPa | 0 mm | - | 654 W/m² | - |
| 1778077998 | 27.78° C | 78% | 1019.7 hPa | 0 mm | - | 650 W/m² | - |
| 1778076790 | 26.67° C | 83% | 1019.5 hPa | 0 mm | - | 540 W/m² | - |
| 1778076488 | 26.67° C | 84% | 1019.4 hPa | 0 mm | - | 505 W/m² | - |
| 1778074668 | 25.56° C | 90% | 1019.5 hPa | 0 mm | - | 303 W/m² | - |
| 1778074061 | 25° C | 93% | 1019.4 hPa | 0 mm | - | 417 W/m² | - |
| 1778071942 | 22.22° C | 98% | 1019.2 hPa | 0 mm | - | 206 W/m² | - |
| 1778071640 | 22.22° C | 99% | 1019 hPa | 0 mm | - | 176 W/m² | - |
* Rain latest hour (hover to see other rain measurements)
** Current wind speed in m/s (hover to see current wind gust speed)